sensor_id;sensor_type;location;lat;lon;timestamp;pressure;altitude;pressure_sealevel;temperature;humidity
23635;BME280;11994;51.038;16.974;2022-11-30T00:01:12;100999.37;;;1.69;89.00
23635;BME280;11994;51.038;16.974;2022-11-30T00:03:37;100995.06;;;1.70;89.07
23635;BME280;11994;51.038;16.974;2022-11-30T00:06:08;100997.59;;;1.67;89.24
23635;BME280;11994;51.038;16.974;2022-11-30T00:08:36;101006.19;;;1.66;89.30
23635;BME280;11994;51.038;16.974;2022-11-30T00:11:10;100996.64;;;1.63;89.47
23635;BME280;11994;51.038;16.974;2022-11-30T00:13:37;101003.02;;;1.60;89.42
23635;BME280;11994;51.038;16.974;2022-11-30T00:16:04;100995.60;;;1.57;89.43
23635;BME280;11994;51.038;16.974;2022-11-30T00:18:30;101000.72;;;1.55;89.87
23635;BME280;11994;51.038;16.974;2022-11-30T00:21:05;100995.05;;;1.53;90.06
23635;BME280;11994;51.038;16.974;2022-11-30T00:23:37;101001.45;;;1.50;89.98
23635;BME280;11994;51.038;16.974;2022-11-30T00:26:07;100996.20;;;1.47;89.97
23635;BME280;11994;51.038;16.974;2022-11-30T00:28:36;101000.07;;;1.47;90.22
23635;BME280;11994;51.038;16.974;2022-11-30T00:31:06;101001.26;;;1.42;89.97
23635;BME280;11994;51.038;16.974;2022-11-30T00:33:35;101001.26;;;1.42;90.01
23635;BME280;11994;51.038;16.974;2022-11-30T00:36:07;100997.42;;;1.44;89.95
23635;BME280;11994;51.038;16.974;2022-11-30T00:38:40;101000.06;;;1.45;90.02
23635;BME280;11994;51.038;16.974;2022-11-30T00:41:07;100999.56;;;1.43;90.07
23635;BME280;11994;51.038;16.974;2022-11-30T00:43:33;101003.00;;;1.43;90.01
23635;BME280;11994;51.038;16.974;2022-11-30T00:45:58;101009.90;;;1.43;89.97
23635;BME280;11994;51.038;16.974;2022-11-30T00:48:25;101007.17;;;1.38;89.87
23635;BME280;11994;51.038;16.974;2022-11-30T00:50:51;101001.05;;;1.35;89.92
23635;BME280;11994;51.038;16.974;2022-11-30T00:53:18;101006.17;;;1.33;89.99
23635;BME280;11994;51.038;16.974;2022-11-30T00:55:45;101011.33;;;1.32;90.29
23635;BME280;11994;51.038;16.974;2022-11-30T00:58:12;101008.20;;;1.28;90.41
23635;BME280;11994;51.038;16.974;2022-11-30T01:00:38;101008.94;;;1.24;90.52
23635;BME280;11994;51.038;16.974;2022-11-30T01:03:04;101019.20;;;1.21;90.40
23635;BME280;11994;51.038;16.974;2022-11-30T01:05:32;101017.42;;;1.18;90.34
23635;BME280;11994;51.038;16.974;2022-11-30T01:08:00;101016.98;;;1.19;90.51
23635;BME280;11994;51.038;16.974;2022-11-30T01:10:26;101013.49;;;1.17;90.72
23635;BME280;11994;51.038;16.974;2022-11-30T01:12:52;101019.11;;;1.18;90.71
23635;BME280;11994;51.038;16.974;2022-11-30T01:15:18;101017.31;;;1.15;90.60
23635;BME280;11994;51.038;16.974;2022-11-30T01:17:44;101015.07;;;1.12;90.73
23635;BME280;11994;51.038;16.974;2022-11-30T01:20:10;101021.08;;;1.11;90.93
23635;BME280;11994;51.038;16.974;2022-11-30T01:22:36;101013.62;;;1.06;90.80
23635;BME280;11994;51.038;16.974;2022-11-30T01:25:02;101026.08;;;1.05;91.05
23635;BME280;11994;51.038;16.974;2022-11-30T01:27:29;101024.33;;;1.04;91.06
23635;BME280;11994;51.038;16.974;2022-11-30T01:29:55;101024.33;;;1.04;91.06
23635;BME280;11994;51.038;16.974;2022-11-30T01:32:21;101026.75;;;0.98;91.10
23635;BME280;11994;51.038;16.974;2022-11-30T01:34:47;101033.16;;;0.96;91.20
23635;BME280;11994;51.038;16.974;2022-11-30T01:37:12;101031.81;;;0.95;91.49
23635;BME280;11994;51.038;16.974;2022-11-30T01:39:38;101031.75;;;0.92;91.35
23635;BME280;11994;51.038;16.974;2022-11-30T01:42:06;101031.70;;;0.90;91.75
23635;BME280;11994;51.038;16.974;2022-11-30T01:44:53;101034.55;;;0.85;91.78
23635;BME280;11994;51.038;16.974;2022-11-30T01:50:16;101040.05;;;0.82;91.85
23635;BME280;11994;51.038;16.974;2022-11-30T01:52:54;101039.15;;;0.80;92.07
23635;BME280;11994;51.038;16.974;2022-11-30T01:55:21;101039.88;;;0.76;92.27
23635;BME280;11994;51.038;16.974;2022-11-30T01:57:57;101048.00;;;0.74;92.32
23635;BME280;11994;51.038;16.974;2022-11-30T02:00:26;101042.34;;;0.71;92.25
23635;BME280;11994;51.038;16.974;2022-11-30T02:05:45;101042.28;;;0.70;92.90
23635;BME280;11994;51.038;16.974;2022-11-30T02:08:11;101047.77;;;0.66;92.56
23635;BME280;11994;51.038;16.974;2022-11-30T02:10:43;101044.76;;;0.67;92.83
23635;BME280;11994;51.038;16.974;2022-11-30T02:16:26;101044.86;;;0.70;93.47
23635;BME280;11994;51.038;16.974;2022-11-30T02:21:58;101045.51;;;0.49;93.31
23635;BME280;11994;51.038;16.974;2022-11-30T02:27:21;101039.50;;;0.48;94.02
23635;BME280;11994;51.038;16.974;2022-11-30T02:30:23;101046.73;;;0.46;94.26
23635;BME280;11994;51.038;16.974;2022-11-30T02:35:49;101046.13;;;0.28;95.24
23635;BME280;11994;51.038;16.974;2022-11-30T02:38:24;101041.55;;;0.18;95.16
23635;BME280;11994;51.038;16.974;2022-11-30T02:40:52;101047.99;;;0.18;95.36
23635;BME280;11994;51.038;16.974;2022-11-30T02:43:20;101045.87;;;0.19;95.61
23635;BME280;11994;51.038;16.974;2022-11-30T02:46:13;101042.45;;;0.20;95.91
23635;BME280;11994;51.038;16.974;2022-11-30T02:48:59;101042.86;;;0.19;95.69
23635;BME280;11994;51.038;16.974;2022-11-30T02:51:31;101053.66;;;0.20;95.80
23635;BME280;11994;51.038;16.974;2022-11-30T02:53:59;101049.81;;;0.22;96.28
23635;BME280;11994;51.038;16.974;2022-11-30T02:56:25;101053.69;;;0.22;95.85
23635;BME280;11994;51.038;16.974;2022-11-30T02:58:51;101052.97;;;0.26;95.68
23635;BME280;11994;51.038;16.974;2022-11-30T03:01:17;101058.69;;;0.30;96.17
23635;BME280;11994;51.038;16.974;2022-11-30T03:03:43;101061.61;;;0.28;96.29
23635;BME280;11994;51.038;16.974;2022-11-30T03:06:09;101047.67;;;0.21;96.37
23635;BME280;11994;51.038;16.974;2022-11-30T03:08:35;101056.53;;;0.17;96.71
23635;BME280;11994;51.038;16.974;2022-11-30T03:11:02;101062.12;;;0.16;96.45
23635;BME280;11994;51.038;16.974;2022-11-30T03:13:32;101058.31;;;0.18;96.83
23635;BME280;11994;51.038;16.974;2022-11-30T03:16:11;101062.63;;;0.19;96.60
23635;BME280;11994;51.038;16.974;2022-11-30T03:18:35;101071.48;;;0.27;96.74
23635;BME280;11994;51.038;16.974;2022-11-30T03:21:03;101064.20;;;0.28;96.75
23635;BME280;11994;51.038;16.974;2022-11-30T03:23:31;101071.13;;;0.29;96.99
23635;BME280;11994;51.038;16.974;2022-11-30T03:25:57;101080.96;;;0.28;97.48
23635;BME280;11994;51.038;16.974;2022-11-30T03:28:24;101079.97;;;0.23;97.38
23635;BME280;11994;51.038;16.974;2022-11-30T03:30:51;101089.34;;;0.21;97.82
23635;BME280;11994;51.038;16.974;2022-11-30T03:33:16;101081.47;;;0.16;98.05
23635;BME280;11994;51.038;16.974;2022-11-30T03:35:43;101082.62;;;0.12;97.79
23635;BME280;11994;51.038;16.974;2022-11-30T03:38:09;101096.94;;;0.16;98.17
23635;BME280;11994;51.038;16.974;2022-11-30T03:40:36;101096.05;;;0.16;98.14
23635;BME280;11994;51.038;16.974;2022-11-30T03:43:02;101095.59;;;0.15;98.27
23635;BME280;11994;51.038;16.974;2022-11-30T03:45:28;101100.75;;;0.15;98.35
23635;BME280;11994;51.038;16.974;2022-11-30T03:47:54;101106.05;;;0.19;98.71
23635;BME280;11994;51.038;16.974;2022-11-30T03:50:20;101099.06;;;0.15;98.58
23635;BME280;11994;51.038;16.974;2022-11-30T03:52:47;101107.14;;;0.13;98.98
23635;BME280;11994;51.038;16.974;2022-11-30T03:55:13;101112.73;;;0.13;99.46
23635;BME280;11994;51.038;16.974;2022-11-30T03:57:39;101111.78;;;0.11;99.52
23635;BME280;11994;51.038;16.974;2022-11-30T04:00:06;101122.59;;;0.12;99.84
23635;BME280;11994;51.038;16.974;2022-11-30T04:02:32;101121.25;;;0.10;99.75
23635;BME280;11994;51.038;16.974;2022-11-30T04:04:58;101124.74;;;0.12;99.94
23635;BME280;11994;51.038;16.974;2022-11-30T04:07:24;101122.22;;;0.14;100.00
23635;BME280;11994;51.038;16.974;2022-11-30T04:09:50;101123.51;;;0.14;100.00
23635;BME280;11994;51.038;16.974;2022-11-30T04:12:15;101126.47;;;0.12;100.00
23635;BME280;11994;51.038;16.974;2022-11-30T04:14:41;101122.10;;;0.11;99.86
23635;BME280;11994;51.038;16.974;2022-11-30T04:17:07;101121.96;;;0.19;99.62
23635;BME280;11994;51.038;16.974;2022-11-30T04:19:33;101124.73;;;0.25;99.74
23635;BME280;11994;51.038;16.974;2022-11-30T04:21:59;101129.95;;;0.26;99.82
23635;BME280;11994;51.038;16.974;2022-11-30T04:24:24;101131.91;;;0.21;99.80
23635;BME280;11994;51.038;16.974;2022-11-30T04:26:50;101128.41;;;0.19;99.67
23635;BME280;11994;51.038;16.974;2022-11-30T04:29:16;101130.93;;;0.17;99.86
23635;BME280;11994;51.038;16.974;2022-11-30T04:31:42;101124.02;;;0.16;100.00
23635;BME280;11994;51.038;16.974;2022-11-30T04:34:08;101126.03;;;0.12;100.00
23635;BME280;11994;51.038;16.974;2022-11-30T04:36:34;101129.05;;;0.12;100.00
23635;BME280;11994;51.038;16.974;2022-11-30T04:39:00;101127.84;;;0.15;100.00
23635;BME280;11994;51.038;16.974;2022-11-30T04:41:25;101129.13;;;0.15;100.00
23635;BME280;11994;51.038;16.974;2022-11-30T04:43:51;101126.47;;;0.12;100.00
23635;BME280;11994;51.038;16.974;2022-11-30T04:46:17;101122.48;;;0.09;100.00
23635;BME280;11994;51.038;16.974;2022-11-30T04:48:43;101129.38;;;0.10;100.00
23635;BME280;11994;51.038;16.974;2022-11-30T04:51:08;101128.47;;;0.08;100.00
23635;BME280;11994;51.038;16.974;2022-11-30T04:53:36;101127.17;;;0.08;100.00
23635;BME280;11994;51.038;16.974;2022-11-30T04:56:08;101138.87;;;0.11;100.00
23635;BME280;11994;51.038;16.974;2022-11-30T04:58:35;101131.56;;;0.10;100.00
23635;BME280;11994;51.038;16.974;2022-11-30T05:01:01;101139.36;;;0.12;100.00
23635;BME280;11994;51.038;16.974;2022-11-30T05:03:26;101135.75;;;0.07;100.00
23635;BME280;11994;51.038;16.974;2022-11-30T05:05:52;101143.88;;;0.06;100.00
23635;BME280;11994;51.038;16.974;2022-11-30T05:08:18;101131.05;;;0.08;100.00
23635;BME280;11994;51.038;16.974;2022-11-30T05:10:44;101138.35;;;0.08;100.00
23635;BME280;11994;51.038;16.974;2022-11-30T05:13:10;101135.31;;;0.07;100.00
23635;BME280;11994;51.038;16.974;2022-11-30T05:15:36;101141.36;;;0.08;100.00
23635;BME280;11994;51.038;16.974;2022-11-30T05:18:02;101139.38;;;0.13;100.00
23635;BME280;11994;51.038;16.974;2022-11-30T05:20:28;101143.31;;;0.15;100.00
23635;BME280;11994;51.038;16.974;2022-11-30T05:22:54;101136.01;;;0.14;100.00
23635;BME280;11994;51.038;16.974;2022-11-30T05:25:20;101141.05;;;0.11;100.00
23635;BME280;11994;51.038;16.974;2022-11-30T05:27:45;101141.19;;;0.16;100.00
23635;BME280;11994;51.038;16.974;2022-11-30T05:30:12;101144.34;;;0.20;100.00
23635;BME280;11994;51.038;16.974;2022-11-30T05:32:38;101144.72;;;0.18;100.00
23635;BME280;11994;51.038;16.974;2022-11-30T05:35:05;101144.74;;;0.19;100.00
23635;BME280;11994;51.038;16.974;2022-11-30T05:37:31;101148.78;;;0.24;100.00
23635;BME280;11994;51.038;16.974;2022-11-30T05:39:57;101151.82;;;0.25;100.00
23635;BME280;11994;51.038;16.974;2022-11-30T05:42:22;101151.37;;;0.24;100.00
23635;BME280;11994;51.038;16.974;2022-11-30T05:44:48;101154.86;;;0.26;100.00
23635;BME280;11994;51.038;16.974;2022-11-30T05:47:14;101157.55;;;0.29;100.00
23635;BME280;11994;51.038;16.974;2022-11-30T05:49:40;101153.00;;;0.34;100.00
23635;BME280;11994;51.038;16.974;2022-11-30T05:52:06;101149.90;;;0.32;100.00
23635;BME280;11994;51.038;16.974;2022-11-30T05:54:33;101152.34;;;0.27;100.00
23635;BME280;11994;51.038;16.974;2022-11-30T05:56:59;101154.48;;;0.28;100.00
23635;BME280;11994;51.038;16.974;2022-11-30T05:59:25;101150.27;;;0.30;100.00
23635;BME280;11994;51.038;16.974;2022-11-30T06:01:51;101158.21;;;0.36;100.00
23635;BME280;11994;51.038;16.974;2022-11-30T06:04:18;101163.72;;;0.34;100.00
23635;BME280;11994;51.038;16.974;2022-11-30T06:06:45;101172.66;;;0.31;100.00
23635;BME280;11994;51.038;16.974;2022-11-30T06:09:12;101166.47;;;0.26;100.00
23635;BME280;11994;51.038;16.974;2022-11-30T06:11:38;101166.47;;;0.26;100.00
23635;BME280;11994;51.038;16.974;2022-11-30T06:14:04;101165.89;;;0.22;100.00
23635;BME280;11994;51.038;16.974;2022-11-30T06:16:30;101175.41;;;0.23;100.00
23635;BME280;11994;51.038;16.974;2022-11-30T06:18:56;101175.04;;;0.25;100.00
23635;BME280;11994;51.038;16.974;2022-11-30T06:21:21;101178.59;;;0.28;100.00
23635;BME280;11994;51.038;16.974;2022-11-30T06:23:47;101171.25;;;0.28;100.00
23635;BME280;11994;51.038;16.974;2022-11-30T06:26:13;101177.56;;;0.23;100.00
23635;BME280;11994;51.038;16.974;2022-11-30T06:28:39;101175.95;;;0.27;100.00
23635;BME280;11994;51.038;16.974;2022-11-30T06:31:06;101175.13;;;0.28;100.00
23635;BME280;11994;51.038;16.974;2022-11-30T06:33:33;101178.99;;;0.28;100.00
23635;BME280;11994;51.038;16.974;2022-11-30T06:35:59;101181.11;;;0.27;100.00
23635;BME280;11994;51.038;16.974;2022-11-30T06:38:25;101184.73;;;0.32;100.00
23635;BME280;11994;51.038;16.974;2022-11-30T06:40:52;101192.67;;;0.38;100.00
23635;BME280;11994;51.038;16.974;2022-11-30T06:43:18;101192.35;;;0.41;100.00
23635;BME280;11994;51.038;16.974;2022-11-30T06:45:45;101195.36;;;0.41;100.00
23635;BME280;11994;51.038;16.974;2022-11-30T06:48:12;101195.69;;;0.37;100.00
23635;BME280;11994;51.038;16.974;2022-11-30T06:50:40;101198.80;;;0.41;100.00
23635;BME280;11994;51.038;16.974;2022-11-30T06:53:06;101202.84;;;0.46;100.00
23635;BME280;11994;51.038;16.974;2022-11-30T06:55:32;101200.30;;;0.47;100.00
23635;BME280;11994;51.038;16.974;2022-11-30T06:58:07;101204.67;;;0.50;100.00
23635;BME280;11994;51.038;16.974;2022-11-30T07:00:35;101199.00;;;0.47;100.00
23635;BME280;11994;51.038;16.974;2022-11-30T07:03:03;101199.44;;;0.47;100.00
23635;BME280;11994;51.038;16.974;2022-11-30T07:05:38;101198.09;;;0.45;100.00
23635;BME280;11994;51.038;16.974;2022-11-30T07:08:09;101207.06;;;0.44;100.00
23635;BME280;11994;51.038;16.974;2022-11-30T07:10:40;101208.73;;;0.42;100.00
23635;BME280;11994;51.038;16.974;2022-11-30T07:13:12;101213.89;;;0.42;100.00
23635;BME280;11994;51.038;16.974;2022-11-30T07:15:40;101201.95;;;0.45;100.00
23635;BME280;11994;51.038;16.974;2022-11-30T07:18:07;101206.72;;;0.46;100.00
23635;BME280;11994;51.038;16.974;2022-11-30T07:20:33;101207.23;;;0.48;100.00
23635;BME280;11994;51.038;16.974;2022-11-30T07:23:00;101203.05;;;0.52;100.00
23635;BME280;11994;51.038;16.974;2022-11-30T07:25:44;101211.25;;;0.53;100.00
23635;BME280;11994;51.038;16.974;2022-11-30T07:28:29;101205.31;;;0.55;100.00
23635;BME280;11994;51.038;16.974;2022-11-30T07:30:54;101215.31;;;0.59;100.00
23635;BME280;11994;51.038;16.974;2022-11-30T07:33:20;101213.97;;;0.57;100.00
23635;BME280;11994;51.038;16.974;2022-11-30T07:35:46;101212.08;;;0.52;100.00
23635;BME280;11994;51.038;16.974;2022-11-30T07:38:12;101217.19;;;0.50;100.00
23635;BME280;11994;51.038;16.974;2022-11-30T07:40:37;101221.05;;;0.50;100.00
23635;BME280;11994;51.038;16.974;2022-11-30T07:43:03;101230.92;;;0.49;100.00
23635;BME280;11994;51.038;16.974;2022-11-30T07:45:29;101234.33;;;0.48;100.00
23635;BME280;11994;51.038;16.974;2022-11-30T07:47:59;101231.75;;;0.48;100.00
23635;BME280;11994;51.038;16.974;2022-11-30T07:50:25;101230.60;;;0.53;100.00
23635;BME280;11994;51.038;16.974;2022-11-30T07:52:51;101240.09;;;0.54;100.00
23635;BME280;11994;51.038;16.974;2022-11-30T07:55:17;101232.87;;;0.56;100.00
23635;BME280;11994;51.038;16.974;2022-11-30T07:57:44;101230.55;;;0.51;100.00
23635;BME280;11994;51.038;16.974;2022-11-30T08:00:11;101234.02;;;0.52;100.00
23635;BME280;11994;51.038;16.974;2022-11-30T08:02:38;101234.02;;;0.52;100.00
23635;BME280;11994;51.038;16.974;2022-11-30T08:05:04;101232.73;;;0.52;100.00
23635;BME280;11994;51.038;16.974;2022-11-30T08:07:31;101230.94;;;0.51;100.00
23635;BME280;11994;51.038;16.974;2022-11-30T08:09:56;101234.42;;;0.51;100.00
23635;BME280;11994;51.038;16.974;2022-11-30T08:12:23;101233.39;;;0.59;100.00
23635;BME280;11994;51.038;16.974;2022-11-30T08:14:49;101230.17;;;0.66;100.00
23635;BME280;11994;51.038;16.974;2022-11-30T08:17:15;101237.08;;;0.67;100.00
23635;BME280;11994;51.038;16.974;2022-11-30T08:19:41;101238.34;;;0.65;100.00
23635;BME280;11994;51.038;16.974;2022-11-30T08:22:07;101237.05;;;0.65;100.00
23635;BME280;11994;51.038;16.974;2022-11-30T08:24:33;101238.48;;;0.70;100.00
23635;BME280;11994;51.038;16.974;2022-11-30T08:26:58;101236.81;;;0.72;100.00
23635;BME280;11994;51.038;16.974;2022-11-30T08:29:24;101239.58;;;0.64;100.00
23635;BME280;11994;51.038;16.974;2022-11-30T08:31:50;101242.04;;;0.61;100.00
23635;BME280;11994;51.038;16.974;2022-11-30T08:34:16;101234.47;;;0.65;100.00
23635;BME280;11994;51.038;16.974;2022-11-30T08:36:42;101237.91;;;0.66;100.00
23635;BME280;11994;51.038;16.974;2022-11-30T08:39:10;101231.57;;;0.69;100.00
23635;BME280;11994;51.038;16.974;2022-11-30T08:41:37;101237.53;;;0.68;100.00
23635;BME280;11994;51.038;16.974;2022-11-30T08:44:04;101232.86;;;0.69;100.00
23635;BME280;11994;51.038;16.974;2022-11-30T08:46:30;101230.28;;;0.69;100.00
23635;BME280;11994;51.038;16.974;2022-11-30T08:48:57;101233.00;;;0.73;100.00
23635;BME280;11994;51.038;16.974;2022-11-30T08:51:22;101239.14;;;0.77;100.00
23635;BME280;11994;51.038;16.974;2022-11-30T08:53:49;101239.97;;;0.76;100.00
23635;BME280;11994;51.038;16.974;2022-11-30T08:56:18;101241.66;;;0.75;100.00
23635;BME280;11994;51.038;16.974;2022-11-30T08:58:45;101241.27;;;0.76;100.00
23635;BME280;11994;51.038;16.974;2022-11-30T09:01:14;101245.65;;;0.78;100.00
23635;BME280;11994;51.038;16.974;2022-11-30T09:03:43;101242.69;;;0.80;100.00
23635;BME280;11994;51.038;16.974;2022-11-30T09:06:13;101241.84;;;0.80;100.00
23635;BME280;11994;51.038;16.974;2022-11-30T09:08:42;101248.55;;;0.75;100.00
23635;BME280;11994;51.038;16.974;2022-11-30T09:11:11;101251.13;;;0.75;100.00
23635;BME280;11994;51.038;16.974;2022-11-30T09:13:39;101248.49;;;0.73;100.00
23635;BME280;11994;51.038;16.974;2022-11-30T09:16:06;101249.27;;;0.71;100.00
23635;BME280;11994;51.038;16.974;2022-11-30T09:18:33;101250.94;;;0.69;100.00
23635;BME280;11994;51.038;16.974;2022-11-30T09:21:00;101249.91;;;0.64;100.00
23635;BME280;11994;51.038;16.974;2022-11-30T09:23:28;101249.98;;;0.67;100.00
23635;BME280;11994;51.038;16.974;2022-11-30T09:25:59;101253.00;;;0.66;100.00
23635;BME280;11994;51.038;16.974;2022-11-30T09:28:27;101254.61;;;0.63;100.00
23635;BME280;11994;51.038;16.974;2022-11-30T09:31:57;101258.11;;;0.65;100.00
23635;BME280;11994;51.038;16.974;2022-11-30T09:33:38;101255.41;;;0.62;100.00
23635;BME280;11994;51.038;16.974;2022-11-30T09:36:11;101257.33;;;0.67;100.00
23635;BME280;11994;51.038;16.974;2022-11-30T09:38:35;101264.24;;;0.68;100.00
23635;BME280;11994;51.038;16.974;2022-11-30T09:41:04;101258.19;;;0.68;100.00
23635;BME280;11994;51.038;16.974;2022-11-30T09:43:49;101263.53;;;0.72;100.00
23635;BME280;11994;51.038;16.974;2022-11-30T09:46:22;101257.41;;;0.70;100.00
23635;BME280;11994;51.038;16.974;2022-11-30T09:48:53;101265.99;;;0.69;100.00
23635;BME280;11994;51.038;16.974;2022-11-30T09:51:27;101263.53;;;0.72;100.00
23635;BME280;11994;51.038;16.974;2022-11-30T09:54:17;101268.17;;;0.70;100.00
23635;BME280;11994;51.038;16.974;2022-11-30T09:56:42;101268.95;;;0.67;100.00
23635;BME280;11994;51.038;16.974;2022-11-30T09:59:15;101273.66;;;0.66;100.00
23635;BME280;11994;51.038;16.974;2022-11-30T10:01:46;101274.97;;;0.68;100.00
23635;BME280;11994;51.038;16.974;2022-11-30T10:04:24;101276.58;;;0.64;100.00
23635;BME280;11994;51.038;16.974;2022-11-30T10:07:01;101266.11;;;0.60;100.00
23635;BME280;11994;51.038;16.974;2022-11-30T10:12:18;101276.23;;;0.66;100.00
23635;BME280;11994;51.038;16.974;2022-11-30T10:18:01;101269.20;;;0.62;100.00
23635;BME280;11994;51.038;16.974;2022-11-30T10:20:50;101271.33;;;0.61;100.00
23635;BME280;11994;51.038;16.974;2022-11-30T10:24:11;101266.23;;;0.63;100.00
23635;BME280;11994;51.038;16.974;2022-11-30T10:26:34;101263.27;;;0.65;100.00
23635;BME280;11994;51.038;16.974;2022-11-30T10:29:17;101266.74;;;0.65;100.00
23635;BME280;11994;51.038;16.974;2022-11-30T10:31:46;101262.06;;;0.68;100.00
23635;BME280;11994;51.038;16.974;2022-11-30T10:34:19;101254.95;;;0.73;100.00
23635;BME280;11994;51.038;16.974;2022-11-30T10:36:59;101263.06;;;0.71;100.00
23635;BME280;11994;51.038;16.974;2022-11-30T10:39:55;101261.28;;;0.70;100.00
23635;BME280;11994;51.038;16.974;2022-11-30T10:42:36;101260.05;;;0.72;100.00
23635;BME280;11994;51.038;16.974;2022-11-30T10:45:14;101251.02;;;0.72;100.00
23635;BME280;11994;51.038;16.974;2022-11-30T10:47:53;101257.61;;;0.76;100.00
23635;BME280;11994;51.038;16.974;2022-11-30T10:50:17;101259.71;;;0.74;100.00
23635;BME280;11994;51.038;16.974;2022-11-30T10:52:48;101257.59;;;0.75;100.00
23635;BME280;11994;51.038;16.974;2022-11-30T10:55:18;101253.80;;;0.78;100.00
23635;BME280;11994;51.038;16.974;2022-11-30T10:57:47;101255.20;;;0.81;100.00
23635;BME280;11994;51.038;16.974;2022-11-30T11:00:17;101252.24;;;0.83;100.00
23635;BME280;11994;51.038;16.974;2022-11-30T11:02:45;101259.61;;;0.85;100.00
23635;BME280;11994;51.038;16.974;2022-11-30T11:05:25;101261.93;;;0.90;100.00
23635;BME280;11994;51.038;16.974;2022-11-30T11:07:59;101261.22;;;0.94;100.00
23635;BME280;11994;51.038;16.974;2022-11-30T11:10:48;101259.55;;;0.96;100.00
23635;BME280;11994;51.038;16.974;2022-11-30T11:13:34;101261.78;;;0.98;100.00
23635;BME280;11994;51.038;16.974;2022-11-30T11:15:57;101264.57;;;0.91;99.54
23635;BME280;11994;51.038;16.974;2022-11-30T11:18:27;101263.55;;;0.86;99.47
23635;BME280;11994;51.038;16.974;2022-11-30T11:23:43;101265.22;;;0.98;99.79
23635;BME280;11994;51.038;16.974;2022-11-30T11:26:19;101255.78;;;0.99;99.61
23635;BME280;11994;51.038;16.974;2022-11-30T11:28:52;101248.76;;;0.95;99.11
23635;BME280;11994;51.038;16.974;2022-11-30T11:31:43;101248.76;;;0.95;99.11
23635;BME280;11994;51.038;16.974;2022-11-30T11:34:25;101253.98;;;0.96;99.29
23635;BME280;11994;51.038;16.974;2022-11-30T11:37:28;101253.39;;;1.05;99.51
23635;BME280;11994;51.038;16.974;2022-11-30T11:40:01;101254.22;;;1.04;99.25
23635;BME280;11994;51.038;16.974;2022-11-30T11:42:35;101259.34;;;1.02;99.28
23635;BME280;11994;51.038;16.974;2022-11-30T11:45:21;101263.72;;;1.05;98.97
23635;BME280;11994;51.038;16.974;2022-11-30T11:48:01;101266.95;;;0.98;98.57
23635;BME280;11994;51.038;16.974;2022-11-30T11:50:38;101263.28;;;0.91;98.53
23635;BME280;11994;51.038;16.974;2022-11-30T11:55:57;101252.04;;;0.89;98.74
23635;BME280;11994;51.038;16.974;2022-11-30T11:58:25;101256.87;;;0.93;98.76
23635;BME280;11994;51.038;16.974;2022-11-30T12:00:54;101261.67;;;0.95;98.85
23635;BME280;11994;51.038;16.974;2022-11-30T12:03:35;101263.34;;;0.93;98.75
23635;BME280;11994;51.038;16.974;2022-11-30T12:06:08;101256.45;;;0.93;98.68
23635;BME280;11994;51.038;16.974;2022-11-30T12:08:47;101262.50;;;0.94;98.66
23635;BME280;11994;51.038;16.974;2022-11-30T12:11:38;101270.70;;;0.95;98.60
23635;BME280;11994;51.038;16.974;2022-11-30T12:14:01;101268.58;;;0.96;98.67
23635;BME280;11994;51.038;16.974;2022-11-30T12:16:54;101267.78;;;0.97;98.50
23635;BME280;11994;51.038;16.974;2022-11-30T12:19:53;101260.30;;;0.92;98.41
23635;BME280;11994;51.038;16.974;2022-11-30T12:25:32;101267.08;;;1.02;98.74
23635;BME280;11994;51.038;16.974;2022-11-30T12:31:07;101264.17;;;1.06;98.64
23635;BME280;11994;51.038;16.974;2022-11-30T12:36:53;101266.77;;;1.06;98.53
23635;BME280;11994;51.038;16.974;2022-11-30T12:39:43;101269.99;;;1.13;98.71
23635;BME280;11994;51.038;16.974;2022-11-30T12:42:35;101266.28;;;1.17;98.76
23635;BME280;11994;51.038;16.974;2022-11-30T12:50:46;101270.48;;;1.14;98.28
23635;BME280;11994;51.038;16.974;2022-11-30T12:53:34;101271.78;;;1.14;98.30
23635;BME280;11994;51.038;16.974;2022-11-30T12:56:07;101267.84;;;1.12;98.20
23635;BME280;11994;51.038;16.974;2022-11-30T13:02:15;101277.66;;;1.10;98.04
23635;BME280;11994;51.038;16.974;2022-11-30T13:04:49;101271.20;;;1.10;98.06
23635;BME280;11994;51.038;16.974;2022-11-30T13:07:30;101274.64;;;1.10;98.05
23635;BME280;11994;51.038;16.974;2022-11-30T13:12:49;101276.31;;;1.08;97.88
23635;BME280;11994;51.038;16.974;2022-11-30T13:15:20;101270.64;;;1.06;97.72
23635;BME280;11994;51.038;16.974;2022-11-30T13:17:48;101272.70;;;1.03;97.65
23635;BME280;11994;51.038;16.974;2022-11-30T13:20:38;101272.77;;;1.05;97.71
23635;BME280;11994;51.038;16.974;2022-11-30T13:23:41;101272.77;;;1.05;97.65
23635;BME280;11994;51.038;16.974;2022-11-30T13:29:34;101266.44;;;0.95;97.36
23635;BME280;11994;51.038;16.974;2022-11-30T13:31:56;101270.20;;;0.92;97.35
23635;BME280;11994;51.038;16.974;2022-11-30T13:34:35;101273.21;;;0.92;97.40
23635;BME280;11994;51.038;16.974;2022-11-30T13:37:07;101270.14;;;0.91;97.36
23635;BME280;11994;51.038;16.974;2022-11-30T13:39:44;101262.71;;;0.87;97.33
23635;BME280;11994;51.038;16.974;2022-11-30T13:45:16;101264.17;;;0.92;97.38
23635;BME280;11994;51.038;16.974;2022-11-30T13:47:47;101272.11;;;0.98;97.48
23635;BME280;11994;51.038;16.974;2022-11-30T13:58:20;101267.03;;;1.01;97.27
23635;BME280;11994;51.038;16.974;2022-11-30T14:01:16;101277.80;;;1.00;97.27
23635;BME280;11994;51.038;16.974;2022-11-30T14:03:37;101278.59;;;0.99;97.35
23635;BME280;11994;51.038;16.974;2022-11-30T14:06:55;101281.69;;;1.02;97.32